createdAt,value
2022-08-25T00:02:08.099Z,99133.00
2022-08-25T00:04:39.536Z,99134.00
2022-08-25T00:07:13.833Z,99132.00
2022-08-25T00:09:54.383Z,99127.00
2022-08-25T00:12:23.611Z,99127.00
2022-08-25T00:14:56.860Z,99118.00
2022-08-25T00:20:27.835Z,99118.00
2022-08-25T00:23:02.312Z,99128.00
2022-08-25T00:25:35.837Z,99115.00
2022-08-25T00:28:07.803Z,99118.00
2022-08-25T00:30:41.864Z,99124.00
2022-08-25T00:33:08.845Z,99114.00
2022-08-25T00:35:51.834Z,99122.00
2022-08-25T00:38:19.057Z,99122.00
2022-08-25T00:40:52.870Z,99124.00
2022-08-25T00:43:19.730Z,99118.00
2022-08-25T00:45:53.909Z,99124.00
2022-08-25T00:48:26.830Z,99119.00
2022-08-25T00:50:56.707Z,99128.00
2022-08-25T00:53:30.846Z,99122.00
2022-08-25T00:56:06.839Z,99135.00
2022-08-25T00:58:42.859Z,99132.00
2022-08-25T01:01:22.977Z,99130.00
2022-08-25T01:03:55.872Z,99138.00
2022-08-25T01:06:22.732Z,99145.00
2022-08-25T01:08:56.846Z,99146.00
2022-08-25T01:11:30.509Z,99143.00
2022-08-25T01:14:06.319Z,99142.00
2022-08-25T01:16:35.490Z,99130.00
2022-08-25T01:19:08.871Z,99143.00
2022-08-25T01:21:54.872Z,99145.00
2022-08-25T01:24:55.458Z,99153.00
2022-08-25T01:27:28.872Z,99148.00
2022-08-25T01:30:01.878Z,99147.00
2022-08-25T01:32:28.757Z,99153.00
2022-08-25T01:35:01.877Z,99157.00
2022-08-25T01:37:34.886Z,99158.00
2022-08-25T01:40:07.450Z,99149.00
2022-08-25T01:43:05.979Z,99139.00
2022-08-25T01:45:35.021Z,99135.00
2022-08-25T01:48:08.883Z,99130.00
2022-08-25T01:50:35.909Z,99139.00
2022-08-25T01:53:17.902Z,99143.00
2022-08-25T01:55:44.774Z,99145.00
2022-08-25T01:58:17.887Z,99143.00
2022-08-25T02:00:49.182Z,99143.00
2022-08-25T02:03:23.911Z,99140.00
2022-08-25T02:05:52.386Z,99143.00
2022-08-25T02:08:19.419Z,99144.00
2022-08-25T02:10:52.909Z,99131.00
2022-08-25T02:13:19.883Z,99124.00
2022-08-25T02:15:59.934Z,99137.00
2022-08-25T02:18:32.897Z,99117.00
2022-08-25T02:20:59.775Z,99122.00
2022-08-25T02:23:32.904Z,99123.00
2022-08-25T02:25:59.787Z,99109.00
2022-08-25T02:28:26.643Z,99108.00
2022-08-25T02:31:01.197Z,99116.00
2022-08-25T02:33:34.921Z,99124.00
2022-08-25T02:36:01.841Z,99111.00
2022-08-25T02:38:29.214Z,99114.00
2022-08-25T02:41:03.947Z,99124.00
2022-08-25T02:43:30.811Z,99120.00
2022-08-25T02:46:03.967Z,99121.00
2022-08-25T02:48:33.111Z,99110.00
2022-08-25T02:51:07.967Z,99100.00
2022-08-25T02:53:35.169Z,99103.00
2022-08-25T02:56:02.110Z,99104.00
2022-08-25T02:58:35.931Z,99105.00
2022-08-25T03:01:02.878Z,99108.00
2022-08-25T03:03:39.313Z,99114.00
2022-08-25T03:06:15.924Z,99116.00
2022-08-25T03:08:49.941Z,99116.00
2022-08-25T03:11:16.827Z,99118.00
2022-08-25T03:13:49.957Z,99116.00
2022-08-25T03:16:17.079Z,99120.00
2022-08-25T03:18:50.946Z,99113.00
2022-08-25T03:21:18.092Z,99112.00
2022-08-25T03:23:51.943Z,99119.00
2022-08-25T03:26:18.816Z,99113.00
2022-08-25T03:28:51.963Z,99108.00
2022-08-25T03:31:18.848Z,99124.00
2022-08-25T03:33:51.969Z,99122.00
2022-08-25T03:36:18.832Z,99126.00
2022-08-25T03:38:45.688Z,99126.00
2022-08-25T03:41:23.966Z,99113.00
2022-08-25T03:43:55.069Z,99113.00
2022-08-25T03:46:33.977Z,99109.00
2022-08-25T03:49:02.074Z,99094.00
2022-08-25T03:51:38.949Z,99096.00
2022-08-25T03:54:05.856Z,99095.00
2022-08-25T03:56:38.971Z,99096.00
2022-08-25T03:59:05.917Z,99096.00
2022-08-25T04:01:32.833Z,99088.00
2022-08-25T04:04:05.991Z,99094.00
2022-08-25T04:06:33.011Z,99097.00
2022-08-25T04:09:05.996Z,99100.00
2022-08-25T04:11:39.004Z,99087.00
2022-08-25T04:14:15.814Z,99089.00
2022-08-25T04:16:43.799Z,99100.00
2022-08-25T04:19:18.013Z,99094.00
2022-08-25T04:21:44.926Z,99083.00
2022-08-25T04:24:19.982Z,99091.00
2022-08-25T04:26:49.302Z,99086.00
2022-08-25T04:29:26.001Z,99080.00
2022-08-25T04:31:53.994Z,99074.00
2022-08-25T04:34:30.381Z,99098.00
2022-08-25T04:37:02.580Z,99100.00
2022-08-25T04:39:36.008Z,99088.00
2022-08-25T04:42:09.999Z,99091.00
2022-08-25T04:44:36.945Z,99086.00
2022-08-25T04:47:11.002Z,99091.00
2022-08-25T04:49:44.017Z,99081.00
2022-08-25T04:52:14.288Z,99087.00
2022-08-25T04:54:42.091Z,99093.00
2022-08-25T04:57:15.027Z,99095.00
2022-08-25T04:59:41.900Z,99083.00
2022-08-25T05:02:15.052Z,99087.00
2022-08-25T05:04:41.961Z,99077.00
2022-08-25T05:07:15.027Z,99080.00
2022-08-25T05:09:41.952Z,99070.00
2022-08-25T05:12:16.051Z,99079.00
2022-08-25T05:14:43.083Z,99070.00
2022-08-25T05:17:16.037Z,99068.00
2022-08-25T05:19:43.039Z,99068.00
2022-08-25T05:22:16.046Z,99061.00
2022-08-25T05:24:42.959Z,99051.00
2022-08-25T05:27:09.861Z,99063.00
2022-08-25T05:29:43.028Z,99055.00
2022-08-25T05:32:09.969Z,99065.00
2022-08-25T05:34:43.074Z,99065.00
2022-08-25T05:37:12.197Z,99064.00
2022-08-25T05:39:39.239Z,99060.00
2022-08-25T05:42:13.044Z,99061.00
2022-08-25T05:44:39.922Z,99066.00
2022-08-25T05:47:13.047Z,99062.00
2022-08-25T05:49:46.047Z,99054.00
2022-08-25T05:52:17.680Z,98999.00
2022-08-25T05:54:52.065Z,98920.00
2022-08-25T05:57:18.999Z,98914.00
2022-08-25T05:59:52.078Z,98905.00
2022-08-25T06:02:26.047Z,98918.00
2022-08-25T06:04:52.912Z,98909.00
2022-08-25T06:07:26.102Z,98918.00
2022-08-25T06:09:53.959Z,98918.00
2022-08-25T06:12:27.071Z,98915.00
2022-08-25T06:14:53.927Z,98933.00
2022-08-25T06:17:20.789Z,98936.00
2022-08-25T06:19:54.077Z,98962.00
2022-08-25T06:22:21.656Z,98981.00
2022-08-25T06:24:55.084Z,98974.00
2022-08-25T06:27:21.981Z,98960.00
2022-08-25T06:29:48.859Z,98961.00
2022-08-25T06:32:27.118Z,98982.00
2022-08-25T06:35:00.732Z,99004.00
2022-08-25T06:37:34.095Z,99017.00
2022-08-25T06:40:07.217Z,99009.00
2022-08-25T06:42:41.117Z,99002.00
2022-08-25T06:45:08.840Z,98982.00
2022-08-25T06:47:35.770Z,98987.00
2022-08-25T06:50:09.104Z,99003.00
2022-08-25T06:52:36.055Z,99012.00
2022-08-25T06:55:10.110Z,99014.00
2022-08-25T06:57:36.982Z,99001.00
2022-08-25T07:00:14.095Z,99007.00
2022-08-25T07:02:41.056Z,99009.00
2022-08-25T07:05:26.906Z,99007.00
2022-08-25T07:08:00.627Z,99025.00
2022-08-25T07:10:34.130Z,99026.00
2022-08-25T07:13:03.546Z,99032.00
2022-08-25T07:15:30.412Z,99026.00
2022-08-25T07:18:04.272Z,99047.00
2022-08-25T07:20:40.502Z,99041.00
2022-08-25T07:23:14.127Z,99040.00
2022-08-25T07:25:40.983Z,99052.00
2022-08-25T07:28:14.148Z,99056.00
2022-08-25T07:30:41.120Z,99048.00
2022-08-25T07:33:16.131Z,99041.00
2022-08-25T07:35:43.824Z,99053.00
2022-08-25T07:38:20.725Z,99033.00
2022-08-25T07:40:47.858Z,99050.00
2022-08-25T07:43:28.144Z,99051.00
2022-08-25T07:45:54.989Z,99048.00
2022-08-25T07:48:28.142Z,99066.00
2022-08-25T07:50:55.425Z,99065.00
2022-08-25T07:53:22.730Z,99065.00
2022-08-25T07:55:56.181Z,99056.00
2022-08-25T07:58:29.157Z,99061.00
2022-08-25T08:00:56.020Z,99058.00
2022-08-25T08:03:45.164Z,99060.00
2022-08-25T08:06:20.338Z,99061.00
2022-08-25T08:08:55.661Z,99057.00
2022-08-25T08:11:35.172Z,99056.00
2022-08-25T08:14:03.870Z,99057.00
2022-08-25T08:16:38.237Z,99068.00
2022-08-25T08:19:13.172Z,99059.00
2022-08-25T08:21:40.907Z,99051.00
2022-08-25T08:24:31.219Z,99063.00
2022-08-25T08:27:01.030Z,99070.00
2022-08-25T08:29:34.165Z,99065.00
2022-08-25T08:32:03.713Z,99071.00
2022-08-25T08:34:39.188Z,99053.00
2022-08-25T08:37:06.076Z,99064.00
2022-08-25T08:39:44.197Z,99058.00
2022-08-25T08:42:24.191Z,99056.00
2022-08-25T08:45:46.208Z,99064.00
2022-08-25T08:48:44.875Z,99059.00
2022-08-25T08:51:35.189Z,99057.00
2022-08-25T08:54:25.207Z,99054.00
2022-08-25T08:57:11.548Z,99050.00
2022-08-25T08:59:53.212Z,99041.00
2022-08-25T09:02:51.364Z,99049.00
2022-08-25T09:05:27.212Z,99054.00
2022-08-25T09:08:15.202Z,99052.00
2022-08-25T09:11:05.212Z,99054.00
2022-08-25T09:13:54.902Z,99052.00
2022-08-25T09:17:06.215Z,99057.00
2022-08-25T09:20:30.233Z,99055.00
2022-08-25T09:23:22.023Z,99054.00
2022-08-25T09:26:17.243Z,99057.00
2022-08-25T09:28:52.858Z,99044.00
2022-08-25T09:31:30.288Z,99040.00
2022-08-25T09:33:58.369Z,99033.00
2022-08-25T09:36:36.773Z,99035.00
2022-08-25T09:39:12.235Z,99035.00
2022-08-25T09:41:47.069Z,99027.00
2022-08-25T09:44:41.377Z,99024.00
2022-08-25T09:47:31.241Z,99017.00
2022-08-25T09:50:08.235Z,99013.00
2022-08-25T09:52:45.416Z,99014.00
2022-08-25T09:55:18.259Z,99009.00
2022-08-25T09:57:52.949Z,99015.00
2022-08-25T10:00:39.259Z,99007.00
2022-08-25T10:03:30.242Z,99002.00
2022-08-25T10:06:19.259Z,98996.00
2022-08-25T10:08:47.919Z,98989.00
2022-08-25T10:11:38.271Z,98988.00
2022-08-25T10:14:24.292Z,98986.00
2022-08-25T10:16:52.410Z,98981.00
2022-08-25T10:19:35.285Z,98983.00
2022-08-25T10:22:10.975Z,98978.00
2022-08-25T10:24:46.312Z,98968.00
2022-08-25T10:27:21.896Z,98953.00
2022-08-25T10:30:31.299Z,98966.00
2022-08-25T10:33:25.291Z,98953.00
2022-08-25T10:36:08.299Z,98954.00
2022-08-25T10:38:53.957Z,98948.00
2022-08-25T10:41:42.279Z,98951.00
2022-08-25T10:44:47.489Z,98948.00
2022-08-25T10:47:44.333Z,98942.00
2022-08-25T10:50:20.169Z,98942.00
2022-08-25T10:53:38.307Z,98933.00
2022-08-25T10:56:23.308Z,98923.00
2022-08-25T10:59:16.961Z,98934.00
2022-08-25T11:02:19.818Z,98926.00
2022-08-25T11:04:53.200Z,98916.00
2022-08-25T11:07:42.346Z,98921.00
2022-08-25T11:10:48.147Z,98917.00
2022-08-25T11:13:51.317Z,98902.00
2022-08-25T11:16:34.598Z,98887.00
2022-08-25T11:19:44.345Z,98906.00
2022-08-25T11:22:30.191Z,98908.00
2022-08-25T11:25:26.339Z,98906.00
2022-08-25T11:28:39.345Z,98904.00
2022-08-25T11:31:08.491Z,98891.00
2022-08-25T11:33:42.321Z,98897.00
2022-08-25T11:36:37.563Z,98890.00
2022-08-25T11:39:40.354Z,98883.00
2022-08-25T11:42:42.365Z,98885.00
2022-08-25T11:45:28.137Z,98870.00
2022-08-25T11:48:39.360Z,98869.00
2022-08-25T11:51:11.333Z,98867.00
2022-08-25T11:53:49.327Z,98862.00
2022-08-25T11:56:34.704Z,98863.00
2022-08-25T11:59:08.354Z,98864.00
2022-08-25T12:01:40.996Z,98865.00
2022-08-25T12:04:18.393Z,98860.00
2022-08-25T12:07:13.369Z,98858.00
2022-08-25T12:09:53.350Z,98847.00
2022-08-25T12:12:51.366Z,98852.00
2022-08-25T12:15:28.239Z,98855.00
2022-08-25T12:18:26.372Z,98851.00
2022-08-25T12:20:53.189Z,98851.00
2022-08-25T12:23:44.960Z,98846.00
2022-08-25T12:26:36.646Z,98844.00
2022-08-25T12:29:15.390Z,98848.00
2022-08-25T12:32:04.875Z,98846.00
2022-08-25T12:35:12.360Z,98849.00
2022-08-25T12:38:12.369Z,98848.00
2022-08-25T12:41:08.392Z,98840.00
2022-08-25T12:43:43.742Z,98840.00
2022-08-25T12:46:29.459Z,98840.00
2022-08-25T12:48:57.418Z,98833.00
2022-08-25T12:51:59.406Z,98831.00
2022-08-25T12:54:38.308Z,98825.00
2022-08-25T12:57:48.415Z,98817.00
2022-08-25T13:00:22.694Z,98813.00
2022-08-25T13:03:11.896Z,98819.00
2022-08-25T13:06:25.400Z,98815.00
2022-08-25T13:09:17.420Z,98820.00
2022-08-25T13:12:17.404Z,98819.00
2022-08-25T13:14:45.359Z,98825.00
2022-08-25T13:17:18.415Z,98822.00
2022-08-25T13:19:51.434Z,98817.00
2022-08-25T13:22:18.301Z,98802.00
2022-08-25T13:24:53.453Z,98804.00
2022-08-25T13:27:24.886Z,98806.00
2022-08-25T13:30:03.786Z,98801.00
2022-08-25T13:32:35.427Z,98799.00
2022-08-25T13:35:32.437Z,98795.00
2022-08-25T13:38:19.050Z,98794.00
2022-08-25T13:40:52.503Z,98772.00
2022-08-25T13:43:27.428Z,98784.00
2022-08-25T13:46:01.541Z,98780.00
2022-08-25T13:48:38.279Z,98766.00
2022-08-25T13:51:36.491Z,98765.00
2022-08-25T13:54:06.967Z,98758.00
2022-08-25T13:56:45.450Z,98755.00
2022-08-25T13:59:34.037Z,98751.00
2022-08-25T14:02:08.552Z,98751.00
2022-08-25T14:04:50.640Z,98743.00
2022-08-25T14:10:46.789Z,98749.00
2022-08-25T14:13:37.761Z,98756.00
2022-08-25T14:16:21.983Z,98748.00
2022-08-25T14:19:03.760Z,98757.00
2022-08-25T14:21:32.424Z,98751.00
2022-08-25T14:24:07.782Z,98744.00
2022-08-25T14:26:37.914Z,98744.00
2022-08-25T14:29:27.764Z,98743.00
2022-08-25T14:31:56.569Z,98748.00
2022-08-25T14:34:35.782Z,98749.00
2022-08-25T14:37:16.777Z,98745.00
2022-08-25T14:39:44.242Z,98744.00
2022-08-25T14:42:18.771Z,98744.00
2022-08-25T14:44:45.901Z,98736.00
2022-08-25T14:47:19.810Z,98738.00
2022-08-25T14:49:52.809Z,98744.00
2022-08-25T14:52:26.046Z,98733.00
2022-08-25T14:54:59.797Z,98736.00
2022-08-25T14:57:32.817Z,98733.00
2022-08-25T15:00:05.813Z,98723.00
2022-08-25T15:02:38.131Z,98719.00
2022-08-25T15:05:11.810Z,98722.00
2022-08-25T15:07:39.676Z,98713.00
2022-08-25T15:10:13.934Z,98714.00
2022-08-25T15:12:47.364Z,98716.00
2022-08-25T15:15:21.836Z,98716.00
2022-08-25T15:17:49.470Z,98710.00
2022-08-25T15:20:17.370Z,98708.00
2022-08-25T15:22:50.836Z,98713.00
2022-08-25T15:25:17.797Z,98710.00
2022-08-25T15:27:50.802Z,98709.00
2022-08-25T15:30:17.734Z,98704.00
2022-08-25T15:32:51.815Z,98699.00
2022-08-25T15:35:23.365Z,98696.00
2022-08-25T15:38:02.883Z,98691.00
2022-08-25T15:40:30.842Z,98699.00
2022-08-25T15:43:04.843Z,98699.00
2022-08-25T15:45:31.993Z,98689.00
2022-08-25T15:48:09.319Z,98688.00
2022-08-25T15:50:36.761Z,98693.00
2022-08-25T15:53:11.841Z,98696.00
2022-08-25T15:55:47.846Z,98696.00
2022-08-25T15:58:19.374Z,98693.00
2022-08-25T16:00:56.396Z,98691.00
2022-08-25T16:03:23.820Z,98686.00
2022-08-25T16:05:56.845Z,98684.00
2022-08-25T16:08:23.747Z,98688.00
2022-08-25T16:10:58.867Z,98687.00
2022-08-25T16:13:31.860Z,98687.00
2022-08-25T16:15:59.299Z,98684.00
2022-08-25T16:18:32.854Z,98689.00
2022-08-25T16:21:00.068Z,98682.00
2022-08-25T16:23:34.864Z,98681.00
2022-08-25T16:26:04.984Z,98681.00
2022-08-25T16:28:38.877Z,98669.00
2022-08-25T16:31:11.648Z,98676.00
2022-08-25T16:33:38.677Z,98678.00
2022-08-25T16:36:23.869Z,98673.00
2022-08-25T16:39:00.879Z,98659.00
2022-08-25T16:41:29.979Z,98660.00
2022-08-25T16:44:04.882Z,98658.00
2022-08-25T16:46:38.008Z,98656.00
2022-08-25T16:49:07.868Z,98656.00
2022-08-25T16:51:40.901Z,98644.00
2022-08-25T16:54:09.196Z,98660.00
2022-08-25T16:56:44.891Z,98650.00
2022-08-25T16:59:12.691Z,98649.00
2022-08-25T17:01:46.952Z,98650.00
2022-08-25T17:04:13.868Z,98643.00
2022-08-25T17:06:49.651Z,98643.00
2022-08-25T17:09:23.881Z,98652.00
2022-08-25T17:11:57.909Z,98651.00
2022-08-25T17:14:30.929Z,98643.00
2022-08-25T17:17:04.016Z,98648.00
2022-08-25T17:19:45.384Z,98647.00
2022-08-25T17:22:12.800Z,98648.00
2022-08-25T17:24:53.424Z,98648.00
2022-08-25T17:27:27.569Z,98649.00
2022-08-25T17:30:00.916Z,98653.00
2022-08-25T17:32:33.941Z,98648.00
2022-08-25T17:35:08.916Z,98641.00
2022-08-25T17:37:41.914Z,98648.00
2022-08-25T17:40:09.494Z,98632.00
2022-08-25T17:42:44.915Z,98638.00
2022-08-25T17:45:17.940Z,98653.00
2022-08-25T17:47:50.939Z,98650.00
2022-08-25T17:50:24.930Z,98645.00
2022-08-25T17:52:58.957Z,98638.00
2022-08-25T17:55:25.811Z,98652.00
2022-08-25T17:57:58.959Z,98644.00
2022-08-25T18:00:25.889Z,98652.00
2022-08-25T18:02:59.951Z,98655.00
2022-08-25T18:05:27.838Z,98658.00
2022-08-25T18:08:01.947Z,98657.00
2022-08-25T18:13:10.969Z,98652.00
2022-08-25T18:15:46.955Z,98648.00
2022-08-25T18:18:14.548Z,98649.00
2022-08-25T18:20:50.967Z,98647.00
2022-08-25T18:23:17.847Z,98655.00
2022-08-25T18:25:50.987Z,98653.00
2022-08-25T18:28:20.422Z,98653.00
2022-08-25T18:30:55.029Z,98656.00
2022-08-25T18:33:35.995Z,98656.00
2022-08-25T18:36:09.967Z,98661.00
2022-08-25T18:38:37.427Z,98655.00
2022-08-25T18:41:12.974Z,98659.00
2022-08-25T18:43:39.927Z,98660.00
2022-08-25T18:46:13.067Z,98650.00
2022-08-25T18:48:40.007Z,98652.00
2022-08-25T18:51:14.979Z,98661.00
2022-08-25T18:53:50.037Z,98657.00
2022-08-25T18:56:24.987Z,98666.00
2022-08-25T18:58:58.992Z,98668.00
2022-08-25T19:01:32.078Z,98687.00
2022-08-25T19:03:59.406Z,98684.00
2022-08-25T19:06:34.995Z,98681.00
2022-08-25T19:09:08.029Z,98689.00
2022-08-25T19:11:34.928Z,98693.00
2022-08-25T19:14:01.820Z,98688.00
2022-08-25T19:16:48.016Z,98696.00
2022-08-25T19:19:14.904Z,98692.00
2022-08-25T19:21:48.257Z,98709.00
2022-08-25T19:24:15.832Z,98710.00
2022-08-25T19:26:52.591Z,98709.00
2022-08-25T19:29:21.442Z,98712.00
2022-08-25T19:31:55.028Z,98727.00
2022-08-25T19:34:30.419Z,98727.00
2022-08-25T19:37:05.069Z,98738.00
2022-08-25T19:39:33.266Z,98718.00
2022-08-25T19:42:07.045Z,98745.00
2022-08-25T19:44:33.961Z,98737.00
2022-08-25T19:47:09.325Z,98733.00
2022-08-25T19:49:40.194Z,98732.00
2022-08-25T19:52:16.052Z,98729.00
2022-08-25T19:54:45.212Z,98734.00
2022-08-25T19:57:13.289Z,98719.00
2022-08-25T20:00:02.089Z,98737.00
2022-08-25T20:02:29.709Z,98729.00
2022-08-25T20:05:04.045Z,98743.00
2022-08-25T20:07:39.042Z,98730.00
2022-08-25T20:10:14.504Z,98738.00
2022-08-25T20:12:42.853Z,98734.00
2022-08-25T20:15:17.066Z,98738.00
2022-08-25T20:17:45.060Z,98738.00
2022-08-25T20:20:22.051Z,98738.00
2022-08-25T20:22:49.434Z,98735.00
2022-08-25T20:25:36.801Z,98739.00
2022-08-25T20:28:04.102Z,98735.00
2022-08-25T20:30:37.091Z,98748.00
2022-08-25T20:33:04.122Z,98751.00
2022-08-25T20:35:42.095Z,98742.00
2022-08-25T20:38:09.709Z,98746.00
2022-08-25T20:40:43.440Z,98742.00
2022-08-25T20:43:10.564Z,98747.00
2022-08-25T20:45:45.083Z,98755.00
2022-08-25T20:48:11.993Z,98748.00
2022-08-25T20:50:46.078Z,98758.00
2022-08-25T20:53:25.232Z,98760.00
2022-08-25T20:55:59.082Z,98762.00
2022-08-25T20:58:26.442Z,98768.00
2022-08-25T21:01:00.177Z,98763.00
2022-08-25T21:03:27.129Z,98758.00
2022-08-25T21:05:54.359Z,98761.00
2022-08-25T21:08:28.103Z,98764.00
2022-08-25T21:11:01.095Z,98768.00
2022-08-25T21:13:28.017Z,98768.00
2022-08-25T21:16:09.097Z,98778.00
2022-08-25T21:18:36.255Z,98768.00
2022-08-25T21:21:15.141Z,98768.00
2022-08-25T21:23:52.119Z,98770.00
2022-08-25T21:26:34.134Z,98772.00
2022-08-25T21:29:09.155Z,98779.00
2022-08-25T21:31:48.098Z,98776.00
2022-08-25T21:34:22.134Z,98769.00
2022-08-25T21:36:49.462Z,98777.00
2022-08-25T21:39:23.156Z,98777.00
2022-08-25T21:41:52.629Z,98781.00
2022-08-25T21:44:27.179Z,98770.00
2022-08-25T21:46:54.866Z,98756.00
2022-08-25T21:49:29.158Z,98777.00
2022-08-25T21:52:04.805Z,98769.00
2022-08-25T21:54:38.152Z,98779.00
2022-08-25T21:57:05.970Z,98781.00
2022-08-25T21:59:44.343Z,98784.00
2022-08-25T22:02:22.363Z,98792.00
2022-08-25T22:05:00.619Z,98788.00
2022-08-25T22:07:34.422Z,98794.00
2022-08-25T22:10:18.118Z,98788.00
2022-08-25T22:12:48.376Z,98791.00
2022-08-25T22:15:24.176Z,98788.00
2022-08-25T22:17:53.373Z,98780.00
2022-08-25T22:20:50.947Z,98796.00
2022-08-25T22:23:28.298Z,98798.00
2022-08-25T22:26:12.169Z,98794.00
2022-08-25T22:28:39.112Z,98795.00
2022-08-25T22:34:14.148Z,98788.00
2022-08-25T22:36:41.030Z,98801.00
2022-08-25T22:39:17.177Z,98807.00
2022-08-25T22:41:44.072Z,98799.00
2022-08-25T22:47:22.239Z,98803.00
2022-08-25T22:49:49.334Z,98802.00
2022-08-25T22:52:31.956Z,98795.00
2022-08-25T22:55:24.073Z,98797.00
2022-08-25T22:57:59.292Z,98803.00
2022-08-25T23:00:27.644Z,98796.00
2022-08-25T23:03:01.264Z,98785.00
2022-08-25T23:05:28.294Z,98786.00
2022-08-25T23:08:00.018Z,98776.00
2022-08-25T23:10:38.469Z,98783.00
2022-08-25T23:13:07.230Z,98787.00
2022-08-25T23:15:41.217Z,98781.00
2022-08-25T23:18:08.164Z,98784.00
2022-08-25T23:20:45.093Z,98776.00
2022-08-25T23:23:27.931Z,98779.00
2022-08-25T23:26:03.231Z,98775.00
2022-08-25T23:28:30.248Z,98770.00
2022-08-25T23:31:05.239Z,98772.00
2022-08-25T23:33:36.750Z,98767.00
2022-08-25T23:36:21.715Z,98770.00
2022-08-25T23:38:58.188Z,98774.00
2022-08-25T23:41:29.057Z,98779.00
2022-08-25T23:44:05.289Z,98782.00
2022-08-25T23:46:39.224Z,98778.00
2022-08-25T23:49:08.464Z,98786.00
2022-08-25T23:51:43.205Z,98780.00
2022-08-25T23:54:13.729Z,98774.00
2022-08-25T23:56:52.059Z,98765.00
2022-08-25T23:59:20.583Z,98768.00
